Time;durP1;ratioP1;P1;durP2;ratioP2;P2;SDS_P1;SDS_P2;PMS_P1;PMS_P2;Temp;Humidity;BMP_temperature;BMP_pressure;BME280_temperature;BME280_humidity;BME280_pressure;Samples;Min_cycle;Max_cycle;Signal;HPM_P1;HPM_P2
2023/06/09 00:01:58;;;;;;;;;;;18.80;69.30;;;-151.14;100.00;62537.16;5051153;28;19921;-80
2023/06/09 00:04:29;;;;;;;;;;;18.70;69.30;;;-151.14;100.00;62537.16;5051342;28;19927;-81
2023/06/09 00:06:58;;;;;;;;;;;18.80;69.30;;;-151.14;100.00;62537.16;5034601;28;19921;-81
2023/06/09 00:09:26;;;;;;;;;;;18.70;69.30;;;-151.14;100.00;62537.16;5068608;28;19927;-81
2023/06/09 00:11:55;;;;;;;;;;;18.70;69.30;;;-151.14;100.00;62537.16;5072419;28;19920;-81
2023/06/09 00:14:23;;;;;;;;;;;18.80;69.30;;;-151.14;100.00;62537.16;5072210;28;19927;-80
2023/06/09 00:16:52;;;;;;;;;;;18.70;69.20;;;-151.14;100.00;62537.16;5054292;28;19921;-80
2023/06/09 00:19:21;;;;;;;;;;;18.70;69.20;;;-151.14;100.00;62537.16;5070380;28;19979;-80
2023/06/09 00:21:50;;;;;;;;;;;18.70;69.10;;;-151.14;100.00;62537.16;5054351;28;19950;-80
2023/06/09 00:24:19;;;;;;;;;;;18.70;69.10;;;-151.14;100.00;62537.16;5071018;28;20132;-80
2023/06/09 00:26:48;;;;;;;;;;;18.70;69.00;;;-151.14;100.00;62537.16;5070924;28;19920;-80
2023/06/09 00:29:18;;;;;;;;;;;18.70;68.90;;;17.91;100.00;62537.16;5070263;28;19920;-81
2023/06/09 00:31:46;;;;;;;;;;;18.70;68.80;;;-151.14;100.00;62537.16;5070925;28;20216;-80
2023/06/09 00:34:15;;;;;;;;;;;18.70;68.90;;;-151.14;100.00;62537.16;5070878;28;19927;-80
2023/06/09 00:36:43;;;;;;;;;;;18.70;69.00;;;60.43;100.00;62537.16;5071926;28;19927;-81
2023/06/09 00:39:11;;;;;;;;;;;18.70;68.90;;;-151.14;100.00;62537.16;5053554;28;19920;-81
2023/06/09 00:41:39;;;;;;;;;;;18.70;68.90;;;-151.14;100.00;62537.16;5070835;28;19927;-80
2023/06/09 00:44:07;;;;;;;;;;;18.60;68.80;;;-151.14;100.00;62537.16;5070529;28;19920;-81
2023/06/09 00:46:38;;;;;;;;;;;18.60;68.90;;;18.08;100.00;62537.16;5072028;28;19927;-80
2023/06/09 00:49:08;;;;;;;;;;;18.60;68.80;;;-151.14;100.00;62537.16;5069929;28;19920;-80
2023/06/09 00:51:38;;;;;;;;;;;18.60;68.80;;;17.87;100.00;62537.16;5070300;28;19920;-80
2023/06/09 00:54:06;;;;;;;;;;;18.70;68.80;;;-151.14;100.00;62537.16;5053960;28;19920;-81
2023/06/09 00:56:35;;;;;;;;;;;18.70;68.90;;;-151.14;100.00;62537.16;5087469;28;19920;-81
2023/06/09 00:59:03;;;;;;;;;;;18.60;68.80;;;-151.14;100.00;62537.16;5069851;28;19927;-81
2023/06/09 01:01:32;;;;;;;;;;;18.60;68.80;;;-151.14;100.00;62537.16;5070520;28;19927;-81
2023/06/09 01:04:02;;;;;;;;;;;18.60;68.80;;;-151.14;100.00;62537.16;5053507;28;19927;-80
2023/06/09 01:06:48;;;;;;;;;;;18.60;68.90;;;-151.14;100.00;62537.16;5070412;28;19920;-81
2023/06/09 01:09:20;;;;;;;;;;;18.60;68.90;;;17.85;100.00;62537.16;5053059;28;19921;-80
2023/06/09 01:11:52;;;;;;;;;;;18.60;68.70;;;17.84;100.00;62537.16;5070445;28;19921;-81
2023/06/09 01:14:22;;;;;;;;;;;18.60;68.60;;;-151.14;100.00;62537.16;5071333;28;19921;-81
2023/06/09 01:16:53;;;;;;;;;;;18.60;68.50;;;-151.14;100.00;62537.16;5053725;28;19921;-81
2023/06/09 01:19:25;;;;;;;;;;;18.60;68.50;;;;;;5103070;28;19920;-81
2023/06/09 01:21:53;;;;;;;;;;;18.60;68.50;;;-151.14;100.00;62537.16;5086865;28;19921;-80
2023/06/09 01:24:30;;;;;;;;;;;18.60;68.50;;;-151.14;100.00;62537.16;5070067;28;19920;-80
2023/06/09 01:27:01;;;;;;;;;;;18.50;68.50;;;18.08;100.00;62537.16;5070274;28;20230;-80
2023/06/09 01:29:30;;;;;;;;;;;18.50;68.40;;;60.43;100.00;62537.16;5069440;28;20231;-80
2023/06/09 01:31:58;;;;;;;;;;;18.50;68.40;;;60.43;100.00;62537.16;5070066;28;19927;-81
2023/06/09 01:34:26;;;;;;;;;;;18.50;68.50;;;-151.14;100.00;62537.16;5071091;28;19946;-80
2023/06/09 01:36:54;;;;;;;;;;;18.50;68.50;;;-151.14;100.00;62537.16;5070444;28;19920;-80
2023/06/09 01:39:22;;;;;;;;;;;18.50;68.60;;;-151.14;100.00;62537.16;5070173;28;19928;-80
2023/06/09 01:41:50;;;;;;;;;;;18.50;68.70;;;-151.14;100.00;62537.16;5071088;28;20090;-81
2023/06/09 01:44:19;;;;;;;;;;;18.50;68.70;;;-151.14;100.00;62537.16;5053073;28;19921;-80
2023/06/09 01:46:49;;;;;;;;;;;18.50;68.60;;;-151.14;100.00;62537.16;5070010;28;19927;-80
2023/06/09 01:49:32;;;;;;;;;;;18.50;68.60;;;17.74;100.00;62537.16;5052654;28;19921;-80
2023/06/09 01:52:02;;;;;;;;;;;18.50;68.50;;;17.73;100.00;62537.16;5070903;28;19924;-80
2023/06/09 01:54:35;;;;;;;;;;;18.50;68.40;;;-151.14;100.00;62537.16;5069611;28;20442;-80
2023/06/09 01:57:06;;;;;;;;;;;18.50;68.30;;;17.68;100.00;62537.16;5049726;28;19920;-80
2023/06/09 01:59:37;;;;;;;;;;;18.50;68.30;;;-151.14;100.00;62537.16;5049093;28;19925;-80
2023/06/09 02:02:05;;;;;;;;;;;18.50;68.50;;;-151.14;100.00;62537.16;5033026;28;19920;-80
2023/06/09 02:04:33;;;;;;;;;;;18.50;68.60;;;-151.14;100.00;62537.16;5053004;28;19923;-80
2023/06/09 02:07:04;;;;;;;;;;;18.40;68.50;;;102.80;100.00;62537.16;5069650;28;19927;-81
2023/06/09 02:09:33;;;;;;;;;;;18.40;68.50;;;-151.14;100.00;62537.16;5070432;28;19934;-80
2023/06/09 02:12:02;;;;;;;;;;;18.40;68.40;;;-151.14;100.00;62537.16;5056157;28;19940;-80
2023/06/09 02:14:33;;;;;;;;;;;18.40;68.50;;;-151.14;100.00;62537.16;5073134;28;20209;-81
2023/06/09 02:17:03;;;;;;;;;;;18.40;68.60;;;-151.14;100.00;62537.16;5073227;28;19921;-80
2023/06/09 02:19:37;;;;;;;;;;;18.40;68.60;;;-151.14;100.00;62537.16;5055421;28;19927;-80
2023/06/09 02:22:05;;;;;;;;;;;18.40;68.50;;;-151.14;100.00;62537.16;5073928;28;19921;-80
2023/06/09 02:24:34;;;;;;;;;;;18.40;68.50;;;-151.14;100.00;62537.16;5056253;28;20125;-80
2023/06/09 02:27:03;;;;;;;;;;;18.40;68.60;;;-151.14;100.00;62537.16;5072909;28;19921;-80
2023/06/09 02:29:33;;;;;;;;;;;18.40;68.60;;;17.66;100.00;62537.16;5089010;28;19920;-80
2023/06/09 02:32:01;;;;;;;;;;;18.40;68.60;;;17.66;100.00;62537.16;5073882;28;19920;-80
2023/06/09 02:34:31;;;;;;;;;;;18.40;68.70;;;-151.14;100.00;62537.16;5072749;28;19920;-80
2023/06/09 02:37:00;;;;;;;;;;;18.40;68.70;;;-151.14;100.00;62537.16;5072922;28;20109;-80
2023/06/09 02:39:28;;;;;;;;;;;18.40;68.80;;;-151.14;100.00;62537.16;5055264;28;19921;-80
2023/06/09 02:41:56;;;;;;;;;;;18.40;68.80;;;-151.14;100.00;62537.16;5072677;28;20119;-81
2023/06/09 02:44:24;;;;;;;;;;;18.40;68.70;;;-151.14;100.00;62537.16;5089459;28;19927;-80
2023/06/09 02:46:52;;;;;;;;;;;18.40;68.60;;;-151.14;100.00;62537.16;5089271;28;19920;-80
2023/06/09 02:49:20;;;;;;;;;;;18.40;68.50;;;-151.14;100.00;62537.16;5071907;28;19926;-80
2023/06/09 02:51:50;;;;;;;;;;;18.40;68.40;;;18.08;100.00;62537.16;5088214;28;19920;-80
2023/06/09 02:54:18;;;;;;;;;;;18.40;68.50;;;-151.14;100.00;62537.16;5071681;28;19921;-80
2023/06/09 02:56:46;;;;;;;;;;;18.40;68.40;;;-151.14;100.00;62537.16;5072501;28;19920;-80
2023/06/09 02:59:15;;;;;;;;;;;18.40;68.40;;;-151.14;100.00;62537.16;5071865;28;19990;-80
2023/06/09 03:01:44;;;;;;;;;;;18.40;68.40;;;-151.14;100.00;62537.16;5072327;28;20124;-80
2023/06/09 03:04:13;;;;;;;;;;;18.40;68.40;;;-151.14;100.00;62537.16;5072421;28;20111;-81
2023/06/09 03:06:48;;;;;;;;;;;18.40;68.30;;;-151.14;100.00;62537.16;5072425;28;19920;-80
2023/06/09 03:09:19;;;;;;;;;;;18.40;68.20;;;-151.14;100.00;62537.16;5071796;28;20093;-80
2023/06/09 03:11:50;;;;;;;;;;;18.40;68.20;;;-151.14;100.00;62537.16;5072313;28;20209;-80
2023/06/09 03:14:19;;;;;;;;;;;18.40;68.30;;;-151.14;100.00;62537.16;5072414;28;19927;-80
2023/06/09 03:16:47;;;;;;;;;;;18.40;68.30;;;-151.14;100.00;62537.16;5072185;28;20360;-80
2023/06/09 03:19:16;;;;;;;;;;;18.30;68.40;;;-151.14;100.00;62537.16;5054719;28;20208;-80
2023/06/09 03:21:45;;;;;;;;;;;18.40;68.40;;;-151.14;100.00;62537.16;5070842;28;19920;-80
2023/06/09 03:24:13;;;;;;;;;;;18.40;68.30;;;-151.14;100.00;62537.16;5072184;28;19920;-81
2023/06/09 03:26:43;;;;;;;;;;;18.40;68.40;;;-151.14;100.00;62537.16;5071933;28;19921;-80
2023/06/09 03:29:11;;;;;;;;;;;18.40;68.40;;;-151.14;100.00;62537.16;5071431;28;19920;-80
2023/06/09 03:31:42;;;;;;;;;;;18.40;68.30;;;-151.14;100.00;62537.16;5071760;28;19921;-80
2023/06/09 03:34:10;;;;;;;;;;;18.40;68.30;;;-151.14;100.00;62537.16;5071940;28;19920;-80
2023/06/09 03:36:38;;;;;;;;;;;18.40;68.30;;;-151.14;100.00;62537.16;5072823;28;19942;-80
2023/06/09 03:39:07;;;;;;;;;;;18.40;68.50;;;-151.14;100.00;62537.16;5071200;28;19921;-80
2023/06/09 03:41:36;;;;;;;;;;;18.40;68.60;;;-151.14;100.00;62537.16;5055018;28;20231;-80
2023/06/09 03:44:05;;;;;;;;;;;18.40;68.50;;;-151.14;100.00;62537.16;5072728;28;20201;-80
2023/06/09 03:46:33;;;;;;;;;;;18.40;68.50;;;-151.14;100.00;62537.16;5071617;28;19927;-80
2023/06/09 03:49:02;;;;;;;;;;;18.40;68.40;;;-151.14;100.00;62537.16;5054486;28;19927;-80
2023/06/09 03:51:30;;;;;;;;;;;18.40;68.60;;;-151.14;100.00;62537.16;5088168;28;19920;-80
2023/06/09 03:54:00;;;;;;;;;;;18.40;68.50;;;-151.14;100.00;62537.16;5054877;28;19927;-81
2023/06/09 03:56:28;;;;;;;;;;;18.40;68.40;;;18.08;100.00;62537.16;5071419;28;19935;-80
2023/06/09 03:58:57;;;;;;;;;;;18.40;68.50;;;-151.14;100.00;62537.16;5087404;28;19927;-81
2023/06/09 04:01:26;;;;;;;;;;;18.40;68.50;;;-151.14;100.00;62537.16;5071270;28;19943;-80
2023/06/09 04:03:55;;;;;;;;;;;18.40;68.70;;;-151.14;100.00;62537.16;5105245;28;19920;-81
2023/06/09 04:06:23;;;;;;;;;;;18.40;68.80;;;-151.14;100.00;62537.16;5054518;28;19920;-81
2023/06/09 04:08:51;;;;;;;;;;;18.40;68.60;;;-151.14;100.00;62537.16;5054226;28;19920;-81
2023/06/09 04:11:19;;;;;;;;;;;18.40;68.60;;;-151.14;100.00;62537.16;5072283;28;19935;-80
2023/06/09 04:13:48;;;;;;;;;;;18.40;68.60;;;-151.14;100.00;62537.16;5067749;28;19999;-80
2023/06/09 04:16:17;;;;;;;;;;;18.40;68.80;;;-151.14;100.00;62537.16;5035005;28;19920;-80
2023/06/09 04:18:47;;;;;;;;;;;18.40;69.00;;;-151.14;100.00;62537.16;5067340;28;19928;-81
2023/06/09 04:21:15;;;;;;;;;;;18.40;69.10;;;60.43;100.00;62537.16;5067624;28;19921;-81
2023/06/09 04:23:43;;;;;;;;;;;18.40;69.20;;;-151.14;100.00;62537.16;5067958;28;19921;-80
2023/06/09 04:26:13;;;;;;;;;;;18.40;69.30;;;-151.14;100.00;62537.16;5051077;28;19921;-81
2023/06/09 04:28:43;;;;;;;;;;;18.40;69.30;;;-151.14;100.00;62537.16;5050485;28;19927;-80
2023/06/09 04:31:11;;;;;;;;;;;18.50;69.70;;;-151.14;100.00;62537.16;5050705;28;19928;-80
2023/06/09 04:33:39;;;;;;;;;;;18.50;69.60;;;-151.14;100.00;62537.16;5067488;28;20209;-81
2023/06/09 04:36:10;;;;;;;;;;;18.50;69.70;;;-151.14;100.00;62537.16;5050841;28;19921;-80
2023/06/09 04:38:39;;;;;;;;;;;18.50;70.10;;;-151.14;100.00;62537.16;5083713;28;19920;-81
2023/06/09 04:41:08;;;;;;;;;;;18.50;70.00;;;-151.14;100.00;62537.16;5050618;28;19921;-80
2023/06/09 04:43:41;;;;;;;;;;;18.50;70.10;;;-151.14;100.00;62537.16;5079210;28;19921;-80
2023/06/09 04:46:12;;;;;;;;;;;18.50;70.10;;;-151.14;100.00;62537.16;5050784;28;19921;-81
2023/06/09 04:48:41;;;;;;;;;;;18.60;70.30;;;-151.14;100.00;62537.16;5083707;28;19928;-80
2023/06/09 04:51:11;;;;;;;;;;;18.60;70.20;;;-151.14;100.00;62537.16;5067230;28;19921;-80
2023/06/09 04:53:46;;;;;;;;;;;18.60;70.50;;;-151.14;100.00;62537.16;5064741;28;19927;-81
2023/06/09 04:56:16;;;;;;;;;;;18.60;70.90;;;-151.14;100.00;62537.16;5070721;28;19927;-80
2023/06/09 04:58:44;;;;;;;;;;;18.70;70.80;;;-151.14;100.00;62537.16;5071167;28;19920;-81
2023/06/09 05:01:14;;;;;;;;;;;18.70;70.40;;;-151.14;100.00;62537.16;5070390;28;19920;-80
2023/06/09 05:03:46;;;;;;;;;;;18.80;70.70;;;-151.14;100.00;62537.16;5087447;28;19920;-80
2023/06/09 05:06:17;;;;;;;;;;;18.80;70.30;;;-151.14;100.00;62537.16;5070367;28;19920;-80
2023/06/09 05:08:45;;;;;;;;;;;18.90;70.10;;;-151.14;100.00;62537.16;5069999;28;20224;-80
2023/06/09 05:11:13;;;;;;;;;;;19.00;70.00;;;-151.14;100.00;62537.16;5070496;28;19921;-80
2023/06/09 05:13:42;;;;;;;;;;;19.00;69.80;;;-151.14;100.00;62537.16;5053525;28;19920;-80
2023/06/09 05:16:11;;;;;;;;;;;19.00;69.60;;;18.08;100.00;62537.16;5070356;28;19920;-80
2023/06/09 05:18:39;;;;;;;;;;;19.10;69.50;;;-151.14;100.00;62537.16;5052935;28;19925;-80
2023/06/09 05:21:07;;;;;;;;;;;19.10;69.50;;;-151.14;100.00;62537.16;5086874;28;19921;-80
2023/06/09 05:23:37;;;;;;;;;;;19.20;69.30;;;18.08;100.00;62537.16;5070239;28;19924;-81
2023/06/09 05:26:06;;;;;;;;;;;19.20;69.20;;;-151.14;100.00;62537.16;5070373;28;19942;-80
2023/06/09 05:28:34;;;;;;;;;;;19.20;69.00;;;-151.14;100.00;62537.16;5069525;28;20116;-80
2023/06/09 05:31:02;;;;;;;;;;;19.20;68.80;;;-151.14;100.00;62537.16;5070115;28;19928;-80
2023/06/09 05:33:30;;;;;;;;;;;19.20;68.70;;;-151.14;100.00;62537.16;5070192;28;20116;-81
2023/06/09 05:35:59;;;;;;;;;;;19.20;68.20;;;18.08;100.00;62537.16;5053441;28;19920;-80
2023/06/09 05:38:28;;;;;;;;;;;19.30;68.00;;;-151.14;100.00;62537.16;5086195;28;19921;-80
2023/06/09 05:40:57;;;;;;;;;;;19.30;68.10;;;-151.14;100.00;62537.16;5069968;28;19921;-80
2023/06/09 05:43:27;;;;;;;;;;;19.30;68.10;;;18.08;100.00;62537.16;5053241;28;20121;-80
2023/06/09 05:45:55;;;;;;;;;;;19.30;68.00;;;-151.14;100.00;62537.16;5073389;28;20116;-80
2023/06/09 05:48:23;;;;;;;;;;;19.30;67.90;;;-151.14;100.00;62537.16;5073223;28;19927;-80
2023/06/09 05:50:52;;;;;;;;;;;19.30;67.60;;;-151.14;100.00;62537.16;5073020;28;20098;-81
2023/06/09 05:53:19;;;;;;;;;;;19.40;67.60;;;-151.14;100.00;62537.16;5073631;28;19921;-80
2023/06/09 05:55:49;;;;;;;;;;;19.40;67.40;;;-151.14;100.00;62537.16;5074609;28;20208;-81
2023/06/09 05:58:18;;;;;;;;;;;19.40;67.40;;;-151.14;100.00;62537.16;5056097;28;19920;-81
2023/06/09 06:00:47;;;;;;;;;;;19.50;67.20;;;-151.14;100.00;62537.16;5073062;28;19925;-80
2023/06/09 06:03:15;;;;;;;;;;;19.50;67.20;;;-151.14;100.00;62537.16;5073006;28;19920;-80
2023/06/09 06:05:45;;;;;;;;;;;19.50;67.00;;;-151.14;100.00;62537.16;5073349;28;19926;-80
2023/06/09 06:08:13;;;;;;;;;;;19.50;67.20;;;39.25;100.00;62537.16;5072677;28;19920;-80
2023/06/09 06:10:41;;;;;;;;;;;19.50;67.00;;;-151.14;100.00;62537.16;5072989;28;20117;-80
2023/06/09 06:13:09;;;;;;;;;;;19.60;66.90;;;-151.14;100.00;62537.16;5072931;28;20174;-80
2023/06/09 06:15:39;;;;;;;;;;;19.60;66.90;;;18.74;100.00;62537.16;5056703;28;19920;-80
2023/06/09 06:18:07;;;;;;;;;;;19.60;66.70;;;-151.14;100.00;62537.16;5074152;28;19920;-81
2023/06/09 06:20:35;;;;;;;;;;;19.70;66.70;;;-151.14;100.00;62537.16;5073525;28;20234;-80
2023/06/09 06:23:03;;;;;;;;;;;19.60;66.60;;;-151.14;100.00;62537.16;5056150;28;20238;-80
2023/06/09 06:25:31;;;;;;;;;;;19.70;66.70;;;-151.14;100.00;62537.16;5073122;28;19927;-80
2023/06/09 06:27:59;;;;;;;;;;;19.70;67.40;;;-151.14;100.00;62537.16;5072696;28;19927;-81
2023/06/09 06:30:29;;;;;;;;;;;19.70;66.40;;;-151.14;100.00;62537.16;5055576;28;19920;-81
2023/06/09 06:32:58;;;;;;;;;;;19.80;66.30;;;-151.14;100.00;62537.16;5073954;28;20112;-81
2023/06/09 06:35:27;;;;;;;;;;;19.80;66.20;;;-151.14;100.00;62537.16;5073877;28;20112;-81
2023/06/09 06:37:55;;;;;;;;;;;19.80;66.20;;;19.12;100.00;62537.16;5072792;28;19927;-81
2023/06/09 06:40:23;;;;;;;;;;;19.80;65.90;;;-151.14;100.00;62537.16;5055255;28;19920;-81
2023/06/09 06:42:51;;;;;;;;;;;19.80;65.80;;;-151.14;100.00;62537.16;5106307;28;19920;-81
2023/06/09 06:45:28;;;;;;;;;;;19.80;66.00;;;19.40;100.00;62537.16;5055879;28;19927;-81
2023/06/09 06:47:56;;;;;;;;;;;19.90;65.90;;;-151.14;100.00;62537.16;5072626;28;19921;-81
2023/06/09 06:50:27;;;;;;;;;;;19.90;65.60;;;-151.14;100.00;62537.16;5071876;28;20123;-81
2023/06/09 06:52:55;;;;;;;;;;;19.90;65.80;;;-151.14;100.00;62537.16;5072495;28;20317;-81
2023/06/09 06:55:23;;;;;;;;;;;20.00;65.70;;;-151.14;100.00;62537.16;5072358;28;20116;-81
2023/06/09 06:57:51;;;;;;;;;;;20.00;65.60;;;-151.14;100.00;62537.16;5072362;28;19921;-80
2023/06/09 07:00:19;;;;;;;;;;;20.00;65.50;;;23.37;100.00;62537.16;5072906;28;19921;-81
2023/06/09 07:02:47;;;;;;;;;;;20.00;65.50;;;19.41;100.00;62537.16;5072123;28;19927;-80
2023/06/09 07:05:16;;;;;;;;;;;20.10;65.60;;;-151.14;100.00;62537.16;5072171;28;19921;-80
2023/06/09 07:07:45;;;;;;;;;;;20.10;65.60;;;-151.14;100.00;62537.16;5072103;28;19927;-80
2023/06/09 07:10:14;;;;;;;;;;;20.10;65.40;;;-151.14;100.00;62537.16;5072739;28;19920;-81
2023/06/09 07:12:42;;;;;;;;;;;20.10;65.40;;;-151.14;100.00;62537.16;5055342;28;19920;-80
2023/06/09 07:15:10;;;;;;;;;;;20.20;65.40;;;-151.14;100.00;62537.16;5068588;28;20125;-81
2023/06/09 07:17:38;;;;;;;;;;;20.20;65.40;;;-151.14;100.00;62537.16;5068988;28;19921;-81
2023/06/09 07:20:08;;;;;;;;;;;20.20;65.40;;;-151.14;100.00;62537.16;5051132;28;19921;-81
2023/06/09 07:22:40;;;;;;;;;;;20.20;65.40;;;-151.14;100.00;62537.16;5051758;28;19927;-80
2023/06/09 07:25:10;;;;;;;;;;;20.20;65.40;;;-151.14;100.00;62537.16;5085454;28;20121;-81
2023/06/09 07:27:38;;;;;;;;;;;20.20;65.40;;;-151.14;100.00;62537.16;5052133;28;19921;-81
2023/06/09 07:30:07;;;;;;;;;;;20.20;65.40;;;-151.14;100.00;62537.16;5034578;28;20124;-80
2023/06/09 07:32:36;;;;;;;;;;;20.20;65.50;;;18.08;100.00;62537.16;5085055;28;19927;-81
2023/06/09 07:35:04;;;;;;;;;;;20.20;65.60;;;-151.14;100.00;62537.16;5052589;28;19921;-81
2023/06/09 07:37:32;;;;;;;;;;;20.20;65.70;;;-151.14;100.00;62537.16;5051794;28;20209;-81
2023/06/09 07:40:00;;;;;;;;;;;20.20;65.70;;;-151.14;100.00;62537.16;5053609;28;19921;-81
2023/06/09 07:42:29;;;;;;;;;;;20.20;65.70;;;-151.14;100.00;62537.16;5072641;28;19921;-81
2023/06/09 07:44:57;;;;;;;;;;;20.20;65.70;;;-151.14;100.00;62537.16;5072485;28;19920;-81
2023/06/09 07:47:27;;;;;;;;;;;20.20;65.70;;;-151.14;100.00;62537.16;5071685;28;20447;-81
2023/06/09 07:49:55;;;;;;;;;;;20.20;65.70;;;18.08;100.00;62537.16;5070924;28;19921;-81
2023/06/09 07:52:23;;;;;;;;;;;20.20;65.80;;;-151.14;100.00;62537.16;5072624;28;19921;-81
2023/06/09 07:54:51;;;;;;;;;;;20.20;65.70;;;-151.14;100.00;62537.16;5072518;28;19946;-81
2023/06/09 07:57:19;;;;;;;;;;;20.30;66.00;;;18.08;100.00;62537.16;5071494;28;19920;-81
2023/06/09 07:59:48;;;;;;;;;;;20.30;66.00;;;-151.14;100.00;62537.16;5071857;28;19927;-81
2023/06/09 08:02:17;;;;;;;;;;;20.30;66.00;;;20.72;100.00;62537.16;5087823;28;19927;-81
2023/06/09 08:04:45;;;;;;;;;;;20.30;65.90;;;-151.14;100.00;62537.16;5071330;28;19927;-81
2023/06/09 08:07:13;;;;;;;;;;;20.30;65.90;;;-151.14;100.00;62537.16;5070668;28;19921;-81
2023/06/09 08:09:41;;;;;;;;;;;20.40;65.90;;;-151.14;100.00;62537.16;5070575;28;20115;-81
2023/06/09 08:12:13;;;;;;;;;;;20.40;65.90;;;-151.14;100.00;62537.16;5072388;28;19921;-81
2023/06/09 08:14:41;;;;;;;;;;;20.40;65.90;;;-151.14;100.00;62537.16;5071240;28;19928;-81
2023/06/09 08:17:10;;;;;;;;;;;20.40;66.00;;;-151.14;100.00;62537.16;5071266;28;19921;-81
2023/06/09 08:19:38;;;;;;;;;;;20.40;66.10;;;-151.14;100.00;62537.16;5053582;28;19965;-81
2023/06/09 08:22:06;;;;;;;;;;;20.40;65.90;;;;;;5072033;28;19924;-81
2023/06/09 08:24:34;;;;;;;;;;;20.40;66.00;;;-151.14;100.00;62537.16;5071013;28;19921;-81
2023/06/09 08:27:02;;;;;;;;;;;20.40;66.00;;;-151.14;100.00;62537.16;5070966;28;20120;-81
2023/06/09 08:29:30;;;;;;;;;;;20.40;66.00;;;-151.14;100.00;62537.16;5053565;28;19920;-81
2023/06/09 08:31:58;;;;;;;;;;;20.40;65.80;;;-151.14;100.00;62537.16;5070717;28;19920;-81
2023/06/09 08:34:28;;;;;;;;;;;20.40;65.80;;;-151.14;100.00;62537.16;5070730;28;19927;-81
2023/06/09 08:36:57;;;;;;;;;;;20.40;66.10;;;18.08;100.00;62537.16;5070757;28;20237;-81
2023/06/09 08:39:25;;;;;;;;;;;20.40;65.90;;;-151.14;100.00;62537.16;5103871;28;19920;-81
2023/06/09 08:41:54;;;;;;;;;;;20.40;65.90;;;-151.14;100.00;62537.16;5104193;28;20124;-81
2023/06/09 08:44:22;;;;;;;;;;;20.40;66.20;;;28.66;100.00;62537.16;5070668;28;20327;-81
2023/06/09 08:46:50;;;;;;;;;;;20.40;66.30;;;-151.14;100.00;62537.16;5070658;28;19921;-81
2023/06/09 08:49:18;;;;;;;;;;;20.40;66.20;;;-151.14;100.00;62537.16;5071033;28;19927;-80
2023/06/09 08:51:48;;;;;;;;;;;20.40;66.40;;;-151.14;100.00;62537.16;5053890;28;19927;-81
2023/06/09 08:54:16;;;;;;;;;;;20.40;66.60;;;-151.14;100.00;62537.16;5053894;28;20223;-81
2023/06/09 08:56:46;;;;;;;;;;;20.40;66.50;;;-151.14;100.00;62537.16;5070602;28;19926;-81
2023/06/09 08:59:14;;;;;;;;;;;20.40;66.70;;;-151.14;100.00;62537.16;5069768;28;19920;-81
2023/06/09 09:01:42;;;;;;;;;;;20.40;66.70;;;-151.14;100.00;62537.16;5070402;28;20116;-81
2023/06/09 09:04:10;;;;;;;;;;;20.40;66.70;;;-151.14;100.00;62537.16;5070485;28;19920;-81
2023/06/09 09:06:39;;;;;;;;;;;20.40;66.70;;;-151.14;100.00;62537.16;5071471;28;19920;-81
2023/06/09 09:09:08;;;;;;;;;;;20.40;66.80;;;-151.14;100.00;62537.16;5052984;28;20128;-81
2023/06/09 09:11:36;;;;;;;;;;;20.40;66.80;;;-151.14;100.00;62537.16;5053461;28;20097;-81
2023/06/09 09:14:09;;;;;;;;;;;20.40;67.20;;;-151.14;100.00;62537.16;5070410;28;19921;-81
2023/06/09 09:16:37;;;;;;;;;;;20.40;67.10;;;-151.14;100.00;62537.16;5071348;28;19927;-81
2023/06/09 09:19:05;;;;;;;;;;;20.40;67.20;;;28.66;100.00;62537.16;5068427;28;19960;-81
2023/06/09 09:21:37;;;;;;;;;;;20.40;67.20;;;19.67;100.00;62537.16;5069903;28;20083;-81
2023/06/09 09:24:07;;;;;;;;;;;20.40;67.20;;;-151.14;100.00;62537.16;5053666;28;19920;-81
2023/06/09 09:26:38;;;;;;;;;;;20.40;67.30;;;-151.14;100.00;62537.16;5069993;28;19947;-81
2023/06/09 09:29:07;;;;;;;;;;;20.40;66.90;;;28.66;100.00;62537.16;5086146;28;19927;-81
2023/06/09 09:31:36;;;;;;;;;;;20.40;67.30;;;-151.14;100.00;62537.16;5053783;28;19927;-81
2023/06/09 09:34:04;;;;;;;;;;;20.40;67.10;;;20.72;100.00;62537.16;5104290;28;19921;-81
2023/06/09 09:36:33;;;;;;;;;;;20.40;67.20;;;-151.14;100.00;62537.16;5071183;28;19921;-81
2023/06/09 09:39:02;;;;;;;;;;;20.40;67.30;;;-151.14;100.00;62537.16;5069339;28;19920;-81
2023/06/09 09:41:30;;;;;;;;;;;20.40;67.20;;;-151.14;100.00;62537.16;5069916;28;19927;-81
2023/06/09 09:44:02;;;;;;;;;;;20.40;67.00;;;-151.14;100.00;62537.16;5069888;28;20205;-81
2023/06/09 09:46:36;;;;;;;;;;;20.40;67.10;;;-151.14;100.00;62537.16;5069726;28;19921;-81
2023/06/09 09:49:05;;;;;;;;;;;20.40;67.30;;;28.66;100.00;62537.16;5052855;28;19920;-81
2023/06/09 09:51:33;;;;;;;;;;;20.40;67.00;;;19.71;100.00;62537.16;5069727;28;19942;-81
2023/06/09 09:54:01;;;;;;;;;;;20.40;67.40;;;-151.14;100.00;62537.16;5069793;28;20116;-81
2023/06/09 09:56:29;;;;;;;;;;;20.40;67.30;;;-151.14;100.00;62537.16;5069654;28;19920;-81
2023/06/09 09:58:59;;;;;;;;;;;20.40;67.30;;;-151.14;100.00;62537.16;5069401;28;20227;-81
2023/06/09 10:01:28;;;;;;;;;;;20.40;67.50;;;-151.14;100.00;62537.16;5069553;28;19927;-81
2023/06/09 10:03:56;;;;;;;;;;;20.50;67.50;;;;;;5069601;28;19921;-81
2023/06/09 10:06:27;;;;;;;;;;;20.50;67.30;;;-151.14;100.00;62537.16;5069846;28;19920;-81
2023/06/09 10:08:55;;;;;;;;;;;20.50;67.20;;;-151.14;100.00;62537.16;5069119;28;19935;-81
2023/06/09 10:11:23;;;;;;;;;;;20.50;67.30;;;-151.14;100.00;62537.16;5052844;28;19926;-81
2023/06/09 10:13:51;;;;;;;;;;;20.40;67.20;;;-151.14;100.00;62537.16;5070750;28;19926;-81
2023/06/09 10:16:20;;;;;;;;;;;20.50;67.30;;;-151.14;100.00;62537.16;5069462;28;19927;-81
2023/06/09 10:18:49;;;;;;;;;;;20.40;67.10;;;-151.14;100.00;62537.16;5069006;28;19934;-81
2023/06/09 10:21:17;;;;;;;;;;;20.40;67.10;;;-151.14;100.00;62537.16;5052614;28;20220;-81
2023/06/09 10:23:45;;;;;;;;;;;20.40;67.30;;;23.37;100.00;62537.16;5070598;28;19927;-81
2023/06/09 10:26:13;;;;;;;;;;;20.50;67.30;;;-151.14;100.00;62537.16;5069199;28;19927;-81
2023/06/09 10:28:41;;;;;;;;;;;20.40;67.00;;;-151.14;100.00;62537.16;5068954;28;19920;-81
2023/06/09 10:31:11;;;;;;;;;;;20.40;67.00;;;-151.14;100.00;62537.16;5071319;28;20174;-81
2023/06/09 10:33:40;;;;;;;;;;;20.50;67.30;;;-151.14;100.00;62537.16;5056186;28;19921;-81
2023/06/09 10:36:10;;;;;;;;;;;20.40;67.30;;;-151.14;100.00;62537.16;5073759;28;20116;-81
2023/06/09 10:38:42;;;;;;;;;;;20.40;67.30;;;-151.14;100.00;62537.16;5072219;28;20120;-81
2023/06/09 10:41:12;;;;;;;;;;;20.40;67.60;;;-151.14;100.00;62537.16;5055783;28;19920;-81
2023/06/09 10:44:08;;;;;;;;;;;20.40;67.50;;;-151.14;100.00;62537.16;5073763;28;19935;-81
2023/06/09 10:46:42;;;;;;;;;;;20.40;67.60;;;-151.14;100.00;62537.16;5055727;28;19920;-81
2023/06/09 10:49:42;;;;;;;;;;;20.40;67.70;;;-151.14;100.00;62537.16;5072886;28;19920;-81
2023/06/09 10:52:49;;;;;;;;;;;20.40;68.10;;;-151.14;100.00;62537.16;5088706;28;19990;-81
2023/06/09 10:55:17;;;;;;;;;;;20.50;68.70;;;-151.14;100.00;62537.16;5106089;28;20494;-82
2023/06/09 10:57:45;;;;;;;;;;;20.50;68.50;;;-151.14;100.00;62537.16;5072556;28;20212;-81
2023/06/09 11:00:15;;;;;;;;;;;20.50;68.20;;;-151.14;100.00;62537.16;5055084;28;19920;-81
2023/06/09 11:02:48;;;;;;;;;;;20.50;68.00;;;19.77;100.00;62537.16;5073425;28;20201;-81
2023/06/09 11:05:20;;;;;;;;;;;20.50;68.20;;;19.76;100.00;62537.16;5073475;28;20212;-81
2023/06/09 11:07:53;;;;;;;;;;;20.50;68.00;;;-151.14;100.00;62537.16;5072046;28;19921;-81